sensor_id;sensor_type;location;lat;lon;timestamp;pressure;altitude;pressure_sealevel;temperature;humidity
80682;BME280;70045;40.200;44.582;2024-01-30T00:01:41;86991.38;;;-0.15;59.56
80682;BME280;70045;40.200;44.582;2024-01-30T00:04:06;86980.66;;;-0.08;59.00
80682;BME280;70045;40.200;44.582;2024-01-30T00:06:32;86983.06;;;0.01;58.92
80682;BME280;70045;40.200;44.582;2024-01-30T00:08:57;86986.69;;;-0.01;58.98
80682;BME280;70045;40.200;44.582;2024-01-30T00:11:25;86991.78;;;-0.01;58.61
80682;BME280;70045;40.200;44.582;2024-01-30T00:13:54;86989.78;;;-0.07;58.86
80682;BME280;70045;40.200;44.582;2024-01-30T00:16:23;86989.38;;;-0.22;59.36
80682;BME280;70045;40.200;44.582;2024-01-30T00:18:49;86989.59;;;-0.27;59.53
80682;BME280;70045;40.200;44.582;2024-01-30T00:21:15;86995.19;;;-0.09;58.74
80682;BME280;70045;40.200;44.582;2024-01-30T00:23:44;86988.63;;;-0.10;59.07
80682;BME280;70045;40.200;44.582;2024-01-30T00:26:09;86979.78;;;-0.12;59.36
80682;BME280;70045;40.200;44.582;2024-01-30T00:28:35;86979.06;;;-0.13;58.83
80682;BME280;70045;40.200;44.582;2024-01-30T00:31:00;86988.19;;;-0.12;58.92
80682;BME280;70045;40.200;44.582;2024-01-30T00:33:26;86977.16;;;-0.16;60.14
80682;BME280;70045;40.200;44.582;2024-01-30T00:35:54;86993.41;;;-0.21;59.17
80682;BME280;70045;40.200;44.582;2024-01-30T00:38:19;86992.16;;;-0.39;60.99
80682;BME280;70045;40.200;44.582;2024-01-30T00:40:45;86985.66;;;-0.36;61.36
80682;BME280;70045;40.200;44.582;2024-01-30T00:43:10;86980.91;;;-0.26;60.91
80682;BME280;70045;40.200;44.582;2024-01-30T00:45:36;86984.69;;;-0.20;60.55
80682;BME280;70045;40.200;44.582;2024-01-30T00:48:05;86990.88;;;-0.21;61.26
80682;BME280;70045;40.200;44.582;2024-01-30T00:50:30;86988.53;;;-0.26;60.42
80682;BME280;70045;40.200;44.582;2024-01-30T00:52:56;86989.72;;;-0.35;61.50
80682;BME280;70045;40.200;44.582;2024-01-30T00:55:21;86984.50;;;-0.39;60.75
80682;BME280;70045;40.200;44.582;2024-01-30T00:57:46;86985.69;;;-0.49;61.13
80682;BME280;70045;40.200;44.582;2024-01-30T01:00:16;86991.75;;;-0.53;61.32
80682;BME280;70045;40.200;44.582;2024-01-30T01:02:41;86973.94;;;-0.78;61.81
80682;BME280;70045;40.200;44.582;2024-01-30T01:05:06;86997.16;;;-0.67;62.00
80682;BME280;70045;40.200;44.582;2024-01-30T01:07:32;86997.88;;;-0.67;61.43
80682;BME280;70045;40.200;44.582;2024-01-30T01:09:57;86964.06;;;-0.92;62.31
80682;BME280;70045;40.200;44.582;2024-01-30T01:12:26;86998.72;;;-0.63;62.18
80682;BME280;70045;40.200;44.582;2024-01-30T01:14:52;87004.16;;;-0.52;61.15
80682;BME280;70045;40.200;44.582;2024-01-30T01:17:17;87005.44;;;-0.58;61.38
80682;BME280;70045;40.200;44.582;2024-01-30T01:19:42;87004.28;;;-0.61;62.19
80682;BME280;70045;40.200;44.582;2024-01-30T01:22:08;87001.50;;;-0.55;61.49
80682;BME280;70045;40.200;44.582;2024-01-30T01:24:37;87011.25;;;-0.58;61.94
80682;BME280;70045;40.200;44.582;2024-01-30T01:27:02;87012.66;;;-0.60;61.15
80682;BME280;70045;40.200;44.582;2024-01-30T01:29:28;87013.69;;;-0.73;61.33
80682;BME280;70045;40.200;44.582;2024-01-30T01:31:57;87008.50;;;-0.77;61.18
80682;BME280;70045;40.200;44.582;2024-01-30T01:34:23;87008.16;;;-0.88;61.95
80682;BME280;70045;40.200;44.582;2024-01-30T01:36:52;87008.69;;;-0.82;62.13
80682;BME280;70045;40.200;44.582;2024-01-30T01:39:18;86997.56;;;-0.90;62.30
80682;BME280;70045;40.200;44.582;2024-01-30T01:41:43;87012.31;;;-0.83;62.21
80682;BME280;70045;40.200;44.582;2024-01-30T01:44:09;87010.63;;;-0.79;62.23
80682;BME280;70045;40.200;44.582;2024-01-30T01:46:34;87008.50;;;-0.77;62.04
80682;BME280;70045;40.200;44.582;2024-01-30T01:49:05;87013.69;;;-0.73;62.24
80682;BME280;70045;40.200;44.582;2024-01-30T01:51:31;87011.03;;;-0.77;61.85
80682;BME280;70045;40.200;44.582;2024-01-30T01:54:02;87010.41;;;-0.74;61.26
80682;BME280;70045;40.200;44.582;2024-01-30T01:56:29;87013.38;;;-0.72;61.44
80682;BME280;70045;40.200;44.582;2024-01-30T01:58:55;87012.13;;;-0.78;61.29
80682;BME280;70045;40.200;44.582;2024-01-30T02:01:25;87016.34;;;-0.82;60.73
80682;BME280;70045;40.200;44.582;2024-01-30T02:03:51;87022.50;;;-0.83;60.81
80682;BME280;70045;40.200;44.582;2024-01-30T02:06:17;87025.47;;;-0.81;61.06
80682;BME280;70045;40.200;44.582;2024-01-30T02:08:42;87025.91;;;-0.79;61.41
80682;BME280;70045;40.200;44.582;2024-01-30T02:11:08;87022.06;;;-0.73;61.82
80682;BME280;70045;40.200;44.582;2024-01-30T02:13:37;87023.25;;;-0.70;61.71
80682;BME280;70045;40.200;44.582;2024-01-30T02:16:03;87026.31;;;-0.65;61.46
80682;BME280;70045;40.200;44.582;2024-01-30T02:18:29;87022.09;;;-0.61;60.79
80682;BME280;70045;40.200;44.582;2024-01-30T02:20:56;87017.84;;;-0.57;60.99
80682;BME280;70045;40.200;44.582;2024-01-30T02:23:24;87020.19;;;-0.64;61.55
80682;BME280;70045;40.200;44.582;2024-01-30T02:25:52;87022.72;;;-0.64;61.34
80682;BME280;70045;40.200;44.582;2024-01-30T02:28:18;87027.81;;;-0.64;61.30
80682;BME280;70045;40.200;44.582;2024-01-30T02:30:44;87028.03;;;-0.69;61.33
80682;BME280;70045;40.200;44.582;2024-01-30T02:33:09;87023.78;;;-0.77;61.88
80682;BME280;70045;40.200;44.582;2024-01-30T02:35:35;87028.75;;;-0.81;62.34
80682;BME280;70045;40.200;44.582;2024-01-30T02:38:03;87030.97;;;-0.79;61.51
80682;BME280;70045;40.200;44.582;2024-01-30T02:40:28;87039.66;;;-0.80;61.82
80682;BME280;70045;40.200;44.582;2024-01-30T02:42:54;87041.28;;;-0.76;61.76
80682;BME280;70045;40.200;44.582;2024-01-30T02:45:19;87036.28;;;-0.72;60.91
80682;BME280;70045;40.200;44.582;2024-01-30T02:47:45;87031.81;;;-0.75;60.50
80682;BME280;70045;40.200;44.582;2024-01-30T02:50:16;87027.16;;;-0.73;61.37
80682;BME280;70045;40.200;44.582;2024-01-30T02:52:41;87026.53;;;-0.82;61.45
80682;BME280;70045;40.200;44.582;2024-01-30T02:55:07;87039.16;;;-0.73;60.96
80682;BME280;70045;40.200;44.582;2024-01-30T02:57:33;87035.66;;;-0.69;60.83
80682;BME280;70045;40.200;44.582;2024-01-30T02:59:58;87040.75;;;-0.69;61.12
80682;BME280;70045;40.200;44.582;2024-01-30T03:02:27;87034.94;;;-0.69;61.50
80682;BME280;70045;40.200;44.582;2024-01-30T03:04:52;87031.41;;;-0.65;61.16
80682;BME280;70045;40.200;44.582;2024-01-30T03:07:18;87036.31;;;-0.60;61.90
80682;BME280;70045;40.200;44.582;2024-01-30T03:09:43;87040.97;;;-0.49;60.34
80682;BME280;70045;40.200;44.582;2024-01-30T03:12:09;87037.91;;;-0.43;60.13
80682;BME280;70045;40.200;44.582;2024-01-30T03:14:38;87037.50;;;-0.45;59.85
80682;BME280;70045;40.200;44.582;2024-01-30T03:17:03;87037.16;;;-0.43;59.50
80682;BME280;70045;40.200;44.582;2024-01-30T03:19:29;87020.19;;;-0.51;59.37
80682;BME280;70045;40.200;44.582;2024-01-30T03:21:54;87042.25;;;-0.31;59.00
80682;BME280;70045;40.200;44.582;2024-01-30T03:24:20;87045.66;;;-0.27;58.95
80682;BME280;70045;40.200;44.582;2024-01-30T03:26:49;87043.31;;;-0.20;58.11
80682;BME280;70045;40.200;44.582;2024-01-30T03:29:14;87047.78;;;-0.16;58.08
80682;BME280;70045;40.200;44.582;2024-01-30T03:31:40;87049.16;;;-0.31;58.81
80682;BME280;70045;40.200;44.582;2024-01-30T03:34:05;87045.66;;;-0.51;59.59
80682;BME280;70045;40.200;44.582;2024-01-30T03:36:30;87051.06;;;-0.65;60.48
80682;BME280;70045;40.200;44.582;2024-01-30T03:38:59;87051.69;;;-0.68;60.83
80682;BME280;70045;40.200;44.582;2024-01-30T03:41:24;87033.00;;;-0.85;61.22
80682;BME280;70045;40.200;44.582;2024-01-30T03:43:50;87053.06;;;-0.83;61.99
80682;BME280;70045;40.200;44.582;2024-01-30T03:46:16;87052.59;;;-0.85;61.96
80682;BME280;70045;40.200;44.582;2024-01-30T03:48:41;87056.72;;;-0.93;62.22
80682;BME280;70045;40.200;44.582;2024-01-30T03:51:10;87061.94;;;-0.89;62.21
80682;BME280;70045;40.200;44.582;2024-01-30T03:53:36;87056.00;;;-0.93;61.79
80682;BME280;70045;40.200;44.582;2024-01-30T03:56:01;87056.03;;;-0.81;60.99
80682;BME280;70045;40.200;44.582;2024-01-30T03:58:26;87055.59;;;-0.83;60.61
80682;BME280;70045;40.200;44.582;2024-01-30T04:00:52;87061.31;;;-0.86;60.81
80682;BME280;70045;40.200;44.582;2024-01-30T04:03:21;87065.41;;;-0.94;60.96
80682;BME280;70045;40.200;44.582;2024-01-30T04:05:46;87064.06;;;-0.91;61.05
80682;BME280;70045;40.200;44.582;2024-01-30T04:08:11;87069.78;;;-0.95;61.39
80682;BME280;70045;40.200;44.582;2024-01-30T04:10:37;87077.09;;;-0.93;60.58
80682;BME280;70045;40.200;44.582;2024-01-30T04:13:02;87072.44;;;-0.91;60.53
80682;BME280;70045;40.200;44.582;2024-01-30T04:15:31;87076.81;;;-0.79;60.27
80682;BME280;70045;40.200;44.582;2024-01-30T04:17:59;87078.31;;;-0.66;59.77
80682;BME280;70045;40.200;44.582;2024-01-30T04:20:25;87078.66;;;-0.55;60.14
80682;BME280;70045;40.200;44.582;2024-01-30T04:22:50;87082.44;;;-0.61;59.71
80682;BME280;70045;40.200;44.582;2024-01-30T04:25:15;87084.78;;;-0.56;59.85
80682;BME280;70045;40.200;44.582;2024-01-30T04:27:44;87083.94;;;-0.60;59.67
80682;BME280;70045;40.200;44.582;2024-01-30T04:30:09;87090.88;;;-0.48;60.16
80682;BME280;70045;40.200;44.582;2024-01-30T04:32:35;87092.25;;;-0.39;59.77
80682;BME280;70045;40.200;44.582;2024-01-30T04:35:01;87096.50;;;-0.30;59.47
80682;BME280;70045;40.200;44.582;2024-01-30T04:37:27;87094.28;;;-0.20;59.64
80682;BME280;70045;40.200;44.582;2024-01-30T04:39:56;87106.91;;;-0.23;58.88
80682;BME280;70045;40.200;44.582;2024-01-30T04:42:21;87096.59;;;-0.27;58.97
80682;BME280;70045;40.200;44.582;2024-01-30T04:44:47;87106.38;;;-0.29;60.34
80682;BME280;70045;40.200;44.582;2024-01-30T04:47:12;87104.34;;;-0.35;60.44
80682;BME280;70045;40.200;44.582;2024-01-30T04:49:38;87113.03;;;-0.36;60.97
80682;BME280;70045;40.200;44.582;2024-01-30T04:52:08;87110.84;;;-0.26;60.50
80682;BME280;70045;40.200;44.582;2024-01-30T04:54:34;87111.47;;;-0.16;60.78
80682;BME280;70045;40.200;44.582;2024-01-30T04:57:00;87113.91;;;-0.08;59.76
80682;BME280;70045;40.200;44.582;2024-01-30T04:59:26;87110.00;;;-0.05;59.15
80682;BME280;70045;40.200;44.582;2024-01-30T05:01:51;87115.09;;;0.07;59.68
80682;BME280;70045;40.200;44.582;2024-01-30T05:04:19;87097.06;;;0.00;58.76
80682;BME280;70045;40.200;44.582;2024-01-30T05:06:45;87119.31;;;0.28;58.33
80682;BME280;70045;40.200;44.582;2024-01-30T05:09:11;87119.00;;;0.29;57.93
80682;BME280;70045;40.200;44.582;2024-01-30T05:11:40;87125.38;;;0.35;58.00
80682;BME280;70045;40.200;44.582;2024-01-30T05:14:06;87124.63;;;0.35;57.72
80682;BME280;70045;40.200;44.582;2024-01-30T05:16:35;87138.00;;;0.44;57.61
80682;BME280;70045;40.200;44.582;2024-01-30T05:19:01;87137.19;;;0.40;58.38
80682;BME280;70045;40.200;44.582;2024-01-30T05:21:26;87134.41;;;0.45;57.53
80682;BME280;70045;40.200;44.582;2024-01-30T05:23:51;87133.09;;;0.51;57.61
80682;BME280;70045;40.200;44.582;2024-01-30T05:26:17;87137.47;;;0.51;57.39
80682;BME280;70045;40.200;44.582;2024-01-30T05:28:45;87138.63;;;0.53;57.28
80682;BME280;70045;40.200;44.582;2024-01-30T05:31:10;87132.59;;;0.46;57.96
80682;BME280;70045;40.200;44.582;2024-01-30T05:33:36;87140.44;;;0.53;57.37
80682;BME280;70045;40.200;44.582;2024-01-30T05:36:02;87144.69;;;0.61;57.42
80682;BME280;70045;40.200;44.582;2024-01-30T05:38:28;87134.91;;;0.63;57.01
80682;BME280;70045;40.200;44.582;2024-01-30T05:40:56;87142.69;;;0.54;57.03
80682;BME280;70045;40.200;44.582;2024-01-30T05:43:22;87142.91;;;0.49;56.96
80682;BME280;70045;40.200;44.582;2024-01-30T05:45:47;87144.38;;;0.63;56.01
80682;BME280;70045;40.200;44.582;2024-01-30T05:48:13;87144.06;;;0.52;56.80
80682;BME280;70045;40.200;44.582;2024-01-30T05:50:38;87143.72;;;0.66;56.28
80682;BME280;70045;40.200;44.582;2024-01-30T05:53:07;87142.41;;;0.84;56.84
80682;BME280;70045;40.200;44.582;2024-01-30T05:55:32;87142.09;;;1.14;55.82
80682;BME280;70045;40.200;44.582;2024-01-30T05:57:58;87146.81;;;1.28;54.77
80682;BME280;70045;40.200;44.582;2024-01-30T06:00:23;87143.78;;;1.22;55.76
80682;BME280;70045;40.200;44.582;2024-01-30T06:02:49;87141.81;;;1.31;55.46
80682;BME280;70045;40.200;44.582;2024-01-30T06:05:17;87144.88;;;1.37;54.02
80682;BME280;70045;40.200;44.582;2024-01-30T06:07:42;87149.16;;;1.33;55.08
80682;BME280;70045;40.200;44.582;2024-01-30T06:10:08;87140.03;;;1.48;55.13
80682;BME280;70045;40.200;44.582;2024-01-30T06:12:37;87152.28;;;1.71;54.61
80682;BME280;70045;40.200;44.582;2024-01-30T06:15:03;87144.78;;;1.62;53.45
80682;BME280;70045;40.200;44.582;2024-01-30T06:17:32;87143.91;;;1.58;54.26
80682;BME280;70045;40.200;44.582;2024-01-30T06:19:58;87152.09;;;1.63;54.14
80682;BME280;70045;40.200;44.582;2024-01-30T06:22:23;87157.41;;;1.71;53.05
80682;BME280;70045;40.200;44.582;2024-01-30T06:24:48;87146.78;;;1.56;55.13
80682;BME280;70045;40.200;44.582;2024-01-30T06:27:15;87151.66;;;1.45;53.32
80682;BME280;70045;40.200;44.582;2024-01-30T06:29:44;87152.78;;;1.32;53.62
80682;BME280;70045;40.200;44.582;2024-01-30T06:32:09;87152.97;;;1.39;53.61
80682;BME280;70045;40.200;44.582;2024-01-30T06:34:35;87152.41;;;1.46;54.48
80682;BME280;70045;40.200;44.582;2024-01-30T06:37:00;87147.53;;;1.41;53.65
80682;BME280;70045;40.200;44.582;2024-01-30T06:39:26;87149.25;;;1.81;52.61
80682;BME280;70045;40.200;44.582;2024-01-30T06:41:55;87150.81;;;2.01;52.59
80682;BME280;70045;40.200;44.582;2024-01-30T06:44:21;87141.31;;;2.34;51.38
80682;BME280;70045;40.200;44.582;2024-01-30T06:46:46;87128.25;;;2.39;51.11
80682;BME280;70045;40.200;44.582;2024-01-30T06:49:12;87146.66;;;2.60;50.67
80682;BME280;70045;40.200;44.582;2024-01-30T06:51:37;87152.41;;;2.73;50.26
80682;BME280;70045;40.200;44.582;2024-01-30T06:54:06;87153.91;;;2.58;49.70
80682;BME280;70045;40.200;44.582;2024-01-30T06:56:32;87154.75;;;2.47;50.30
80682;BME280;70045;40.200;44.582;2024-01-30T06:58:57;87158.41;;;2.81;50.36
80682;BME280;70045;40.200;44.582;2024-01-30T07:01:28;87164.41;;;2.89;49.98
80682;BME280;70045;40.200;44.582;2024-01-30T07:03:53;87155.34;;;2.75;50.29
80682;BME280;70045;40.200;44.582;2024-01-30T07:06:22;87167.66;;;2.86;50.05
80682;BME280;70045;40.200;44.582;2024-01-30T07:08:49;87171.00;;;3.25;50.41
80682;BME280;70045;40.200;44.582;2024-01-30T07:11:22;87166.13;;;3.39;47.93
80682;BME280;70045;40.200;44.582;2024-01-30T07:13:47;87168.50;;;3.48;48.00
80682;BME280;70045;40.200;44.582;2024-01-30T07:16:13;87173.81;;;3.59;48.62
80682;BME280;70045;40.200;44.582;2024-01-30T07:18:42;87164.44;;;3.67;48.78
80682;BME280;70045;40.200;44.582;2024-01-30T07:21:08;87164.56;;;3.74;49.89
80682;BME280;70045;40.200;44.582;2024-01-30T07:23:33;87170.88;;;3.80;50.58
80682;BME280;70045;40.200;44.582;2024-01-30T07:25:59;87176.44;;;3.82;49.56
80682;BME280;70045;40.200;44.582;2024-01-30T07:28:24;87167.00;;;3.67;49.71
80682;BME280;70045;40.200;44.582;2024-01-30T07:30:53;87162.56;;;3.64;49.82
80682;BME280;70045;40.200;44.582;2024-01-30T07:33:19;87168.09;;;3.66;49.06
80682;BME280;70045;40.200;44.582;2024-01-30T07:35:45;87170.72;;;3.50;49.18
80682;BME280;70045;40.200;44.582;2024-01-30T07:38:11;87165.00;;;3.37;50.08
80682;BME280;70045;40.200;44.582;2024-01-30T07:40:36;87158.84;;;3.42;49.42
80682;BME280;70045;40.200;44.582;2024-01-30T07:43:05;87165.81;;;3.22;49.12
80682;BME280;70045;40.200;44.582;2024-01-30T07:45:31;87141.38;;;3.08;50.69
80682;BME280;70045;40.200;44.582;2024-01-30T07:47:56;87151.22;;;3.26;49.96
80682;BME280;70045;40.200;44.582;2024-01-30T07:50:21;87171.44;;;2.92;50.27
80682;BME280;70045;40.200;44.582;2024-01-30T07:52:47;87165.97;;;2.58;52.17
80682;BME280;70045;40.200;44.582;2024-01-30T07:55:15;87165.97;;;2.58;51.65
80682;BME280;70045;40.200;44.582;2024-01-30T07:57:41;87171.03;;;2.38;52.42
80682;BME280;70045;40.200;44.582;2024-01-30T08:00:06;87158.22;;;2.54;52.35
80682;BME280;70045;40.200;44.582;2024-01-30T08:02:32;87159.72;;;2.07;53.18
80682;BME280;70045;40.200;44.582;2024-01-30T08:04:57;87166.34;;;2.09;53.05
80682;BME280;70045;40.200;44.582;2024-01-30T08:07:26;87168.53;;;1.94;53.80
80682;BME280;70045;40.200;44.582;2024-01-30T08:09:52;87164.19;;;2.26;53.94
80682;BME280;70045;40.200;44.582;2024-01-30T08:12:17;87159.53;;;2.64;52.99
80682;BME280;70045;40.200;44.582;2024-01-30T08:14:43;87158.50;;;3.04;52.37
80682;BME280;70045;40.200;44.582;2024-01-30T08:17:08;87149.91;;;3.32;50.29
80682;BME280;70045;40.200;44.582;2024-01-30T08:19:37;87154.81;;;3.60;50.57
80682;BME280;70045;40.200;44.582;2024-01-30T08:22:03;87152.72;;;3.46;50.40
80682;BME280;70045;40.200;44.582;2024-01-30T08:24:28;87151.06;;;3.57;49.88
80682;BME280;70045;40.200;44.582;2024-01-30T08:26:54;87148.47;;;3.96;49.22
80682;BME280;70045;40.200;44.582;2024-01-30T08:29:19;87142.88;;;4.37;49.52
80682;BME280;70045;40.200;44.582;2024-01-30T08:31:48;87145.75;;;4.59;48.06
80682;BME280;70045;40.200;44.582;2024-01-30T08:34:13;87141.91;;;4.72;48.08
80682;BME280;70045;40.200;44.582;2024-01-30T08:36:39;87137.13;;;4.70;47.54
80682;BME280;70045;40.200;44.582;2024-01-30T08:39:04;87134.00;;;4.84;47.29
80682;BME280;70045;40.200;44.582;2024-01-30T08:41:30;87121.31;;;4.68;47.87
80682;BME280;70045;40.200;44.582;2024-01-30T08:43:58;87123.22;;;4.48;46.51
80682;BME280;70045;40.200;44.582;2024-01-30T08:46:23;87127.00;;;3.85;49.76
80682;BME280;70045;40.200;44.582;2024-01-30T08:48:49;87129.31;;;4.13;49.23
80682;BME280;70045;40.200;44.582;2024-01-30T08:51:14;87124.75;;;4.53;49.80
80682;BME280;70045;40.200;44.582;2024-01-30T08:53:40;87113.09;;;4.86;48.35
80682;BME280;70045;40.200;44.582;2024-01-30T08:56:09;87121.50;;;4.83;47.02
80682;BME280;70045;40.200;44.582;2024-01-30T08:58:34;87121.88;;;4.58;47.86
80682;BME280;70045;40.200;44.582;2024-01-30T09:01:00;87117.56;;;4.62;48.42
80682;BME280;70045;40.200;44.582;2024-01-30T09:03:25;87114.97;;;4.89;47.77
80682;BME280;70045;40.200;44.582;2024-01-30T09:05:51;87110.75;;;5.04;48.03
80682;BME280;70045;40.200;44.582;2024-01-30T09:08:19;87098.22;;;4.99;47.69
80682;BME280;70045;40.200;44.582;2024-01-30T09:10:44;87103.69;;;4.97;46.97
80682;BME280;70045;40.200;44.582;2024-01-30T09:13:10;87115.06;;;4.96;47.28
80682;BME280;70045;40.200;44.582;2024-01-30T09:15:35;87106.97;;;4.94;47.55
80682;BME280;70045;40.200;44.582;2024-01-30T09:18:01;87107.25;;;4.89;48.56
80682;BME280;70045;40.200;44.582;2024-01-30T09:20:30;87108.41;;;4.92;46.97
80682;BME280;70045;40.200;44.582;2024-01-30T09:22:55;87112.78;;;4.91;48.32
80682;BME280;70045;40.200;44.582;2024-01-30T09:25:20;87110.56;;;4.89;48.90
80682;BME280;70045;40.200;44.582;2024-01-30T09:27:46;87107.66;;;4.91;47.60
80682;BME280;70045;40.200;44.582;2024-01-30T09:30:12;87095.91;;;4.90;48.01
80682;BME280;70045;40.200;44.582;2024-01-30T09:32:42;87098.56;;;4.97;47.61
80682;BME280;70045;40.200;44.582;2024-01-30T09:35:08;87100.78;;;4.72;48.13
80682;BME280;70045;40.200;44.582;2024-01-30T09:37:34;87103.22;;;4.61;48.73
80682;BME280;70045;40.200;44.582;2024-01-30T09:39:59;87107.94;;;4.56;48.49
80682;BME280;70045;40.200;44.582;2024-01-30T09:42:35;87102.25;;;4.43;48.42
80682;BME280;70045;40.200;44.582;2024-01-30T09:45:04;87094.03;;;4.33;48.69
80682;BME280;70045;40.200;44.582;2024-01-30T09:47:43;87108.25;;;4.27;48.97
80682;BME280;70045;40.200;44.582;2024-01-30T09:50:13;87104.34;;;4.10;47.77
80682;BME280;70045;40.200;44.582;2024-01-30T09:52:39;87109.75;;;3.82;49.23
80682;BME280;70045;40.200;44.582;2024-01-30T09:55:08;87105.13;;;3.68;50.39
80682;BME280;70045;40.200;44.582;2024-01-30T09:57:35;87101.47;;;3.27;50.66
80682;BME280;70045;40.200;44.582;2024-01-30T10:00:01;87111.50;;;2.96;51.04
80682;BME280;70045;40.200;44.582;2024-01-30T10:02:26;87103.34;;;2.71;51.56
80682;BME280;70045;40.200;44.582;2024-01-30T10:04:52;87118.38;;;2.57;51.43
80682;BME280;70045;40.200;44.582;2024-01-30T10:07:21;87114.88;;;2.45;51.99
80682;BME280;70045;40.200;44.582;2024-01-30T10:09:47;87112.63;;;2.60;52.03
80682;BME280;70045;40.200;44.582;2024-01-30T10:12:12;87121.66;;;2.73;52.46
80682;BME280;70045;40.200;44.582;2024-01-30T10:14:39;87120.31;;;2.79;51.36
80682;BME280;70045;40.200;44.582;2024-01-30T10:17:04;87116.28;;;2.78;51.77
80682;BME280;70045;40.200;44.582;2024-01-30T10:19:33;87109.47;;;2.67;51.40
80682;BME280;70045;40.200;44.582;2024-01-30T10:22:00;87114.56;;;2.47;51.50
80682;BME280;70045;40.200;44.582;2024-01-30T10:24:26;87110.69;;;2.37;51.32
80682;BME280;70045;40.200;44.582;2024-01-30T10:26:52;87110.53;;;2.30;51.99
80682;BME280;70045;40.200;44.582;2024-01-30T10:29:18;87113.00;;;2.26;52.36
80682;BME280;70045;40.200;44.582;2024-01-30T10:32:04;87117.19;;;2.51;52.41
80682;BME280;70045;40.200;44.582;2024-01-30T10:34:30;87112.81;;;2.71;52.00
80682;BME280;70045;40.200;44.582;2024-01-30T10:37:06;87115.09;;;2.92;50.90
80682;BME280;70045;40.200;44.582;2024-01-30T10:39:37;87102.44;;;2.99;51.25
80682;BME280;70045;40.200;44.582;2024-01-30T10:42:11;87113.81;;;3.21;50.63
80682;BME280;70045;40.200;44.582;2024-01-30T10:47:28;87108.13;;;3.31;50.30
80682;BME280;70045;40.200;44.582;2024-01-30T10:49:55;87108.84;;;3.28;49.93
80682;BME280;70045;40.200;44.582;2024-01-30T10:52:24;87108.00;;;3.24;50.12
80682;BME280;70045;40.200;44.582;2024-01-30T10:54:51;87104.03;;;3.07;50.38
80682;BME280;70045;40.200;44.582;2024-01-30T10:57:17;87101.25;;;3.16;50.82
80682;BME280;70045;40.200;44.582;2024-01-30T10:59:43;87102.00;;;3.36;49.64
80682;BME280;70045;40.200;44.582;2024-01-30T11:02:10;87105.13;;;3.68;50.17
80682;BME280;70045;40.200;44.582;2024-01-30T11:04:41;87107.69;;;3.68;48.52
80682;BME280;70045;40.200;44.582;2024-01-30T11:07:16;87112.72;;;3.84;49.16
80682;BME280;70045;40.200;44.582;2024-01-30T11:09:49;87110.84;;;3.81;48.86
80682;BME280;70045;40.200;44.582;2024-01-30T11:12:14;87103.19;;;3.85;49.84
80682;BME280;70045;40.200;44.582;2024-01-30T11:14:39;87106.16;;;4.10;48.97
80682;BME280;70045;40.200;44.582;2024-01-30T11:17:10;87101.28;;;4.28;47.78
80682;BME280;70045;40.200;44.582;2024-01-30T11:19:35;87106.81;;;4.30;47.30
80682;BME280;70045;40.200;44.582;2024-01-30T11:22:01;87106.72;;;4.23;47.29
80682;BME280;70045;40.200;44.582;2024-01-30T11:24:27;87110.06;;;4.27;48.04
80682;BME280;70045;40.200;44.582;2024-01-30T11:26:56;87112.97;;;4.48;48.03
80682;BME280;70045;40.200;44.582;2024-01-30T11:29:27;87112.22;;;4.48;47.99
80682;BME280;70045;40.200;44.582;2024-01-30T11:31:58;87092.38;;;4.45;48.46
80682;BME280;70045;40.200;44.582;2024-01-30T11:34:24;87108.88;;;4.70;48.00
80682;BME280;70045;40.200;44.582;2024-01-30T11:36:57;87107.09;;;4.75;47.23
80682;BME280;70045;40.200;44.582;2024-01-30T11:39:33;87108.47;;;4.68;48.04
80682;BME280;70045;40.200;44.582;2024-01-30T11:41:59;87104.06;;;4.69;47.29
80682;BME280;70045;40.200;44.582;2024-01-30T11:44:25;87100.66;;;4.61;46.78
80682;BME280;70045;40.200;44.582;2024-01-30T11:46:51;87110.84;;;4.54;47.07
80682;BME280;70045;40.200;44.582;2024-01-30T11:49:17;87113.94;;;4.67;46.57
80682;BME280;70045;40.200;44.582;2024-01-30T11:51:46;87105.84;;;4.65;46.27
80682;BME280;70045;40.200;44.582;2024-01-30T11:54:11;87102.06;;;4.55;47.34
80682;BME280;70045;40.200;44.582;2024-01-30T11:56:37;87113.75;;;4.52;46.87
80682;BME280;70045;40.200;44.582;2024-01-30T11:59:03;87109.34;;;4.53;47.49
80682;BME280;70045;40.200;44.582;2024-01-30T12:01:28;87122.75;;;4.66;48.10
80682;BME280;70045;40.200;44.582;2024-01-30T12:03:58;87118.53;;;4.81;47.47
80682;BME280;70045;40.200;44.582;2024-01-30T12:06:24;87119.19;;;5.04;47.68
80682;BME280;70045;40.200;44.582;2024-01-30T12:09:00;87115.84;;;5.00;46.20
80682;BME280;70045;40.200;44.582;2024-01-30T12:11:27;87117.75;;;4.77;46.22
80682;BME280;70045;40.200;44.582;2024-01-30T12:13:52;87115.66;;;4.86;47.63
80682;BME280;70045;40.200;44.582;2024-01-30T12:16:21;87120.00;;;4.82;47.10
80682;BME280;70045;40.200;44.582;2024-01-30T12:18:47;87117.75;;;4.77;46.97
80682;BME280;70045;40.200;44.582;2024-01-30T12:21:12;87123.19;;;4.71;47.81
80682;BME280;70045;40.200;44.582;2024-01-30T12:23:38;87117.22;;;4.64;47.13
80682;BME280;70045;40.200;44.582;2024-01-30T12:26:04;87124.97;;;4.67;48.24
80682;BME280;70045;40.200;44.582;2024-01-30T12:28:33;87129.91;;;4.30;47.73
80682;BME280;70045;40.200;44.582;2024-01-30T12:31:05;87129.66;;;4.12;48.75
80682;BME280;70045;40.200;44.582;2024-01-30T12:33:30;87129.00;;;3.95;49.93
80682;BME280;70045;40.200;44.582;2024-01-30T12:35:56;87127.09;;;3.27;49.32
80682;BME280;70045;40.200;44.582;2024-01-30T12:38:22;87128.31;;;3.13;50.42
80682;BME280;70045;40.200;44.582;2024-01-30T12:40:54;87140.28;;;2.90;52.19
80682;BME280;70045;40.200;44.582;2024-01-30T12:43:20;87141.63;;;2.83;52.37
80682;BME280;70045;40.200;44.582;2024-01-30T12:45:45;87134.22;;;2.78;51.41
80682;BME280;70045;40.200;44.582;2024-01-30T12:48:12;87136.06;;;2.62;52.22
80682;BME280;70045;40.200;44.582;2024-01-30T12:50:37;87140.41;;;2.77;51.52
80682;BME280;70045;40.200;44.582;2024-01-30T12:53:06;87141.50;;;2.76;51.90
80682;BME280;70045;40.200;44.582;2024-01-30T12:55:31;87130.41;;;2.72;51.56